ESSBESGG

Guest
Details From ESSB - Bromma
To ESGG - Goteborg Landvetter
Flight Number -
Tags Decoded
Created
Modified
Stats Distance 7,806 nm / 14,457 km
Max Altitude 0 ft / 0 m
Waypoints 6
Social Downloads 1
Likes 0
Share VATSIM

Download

Looking for another format? Having issues loading an existing format? Contact us
Advertisement - Login to hide

Notes

Decoded

Route

ESSB TINKA Y42 DEPEX MOXAM ESGG

ID Type Via Altitude Latitude Longitude Leg Dist Tot Dist Heading (true) Name
O ESSB APT - 0 ft / 0 m 59.35867˚ 17.92964˚ - 0 nm - -
TINKA FIX - 0 ft / 0 m 59.20519˚ 16.29639˚ 50 nm 50 nm 260° / 259° -
Y42 APT - 0 ft / 0 m 41.75938˚ -93.56627˚ 3828 nm 3879 nm 309° / 212° Todd Field
DEPEX FIX - 0 ft / 0 m 59.19194˚ 15.02247˚ 3798 nm 7677 nm 33° / 128° -
MOXAM FIX - 0 ft / 0 m 58.53136˚ 13.31392˚ 66 nm 7743 nm 234° / 232° -
O ESGG APT - 0 ft / 0 m 57.64952˚ 12.26771˚ 62 nm 7806 nm 213° / 212° -

Altitude Profile

Advertisement - Login to hide

Weather


0- 5 10 15 20 25 30 35+ Temperature / ° C

Clouds and Precipitation
Forecast for 2017-12-16 06:00 UTC. Updated 25 minutes ago

Ground ~20,000 ft ~40,000 ft Winds

ESSB

Details ICAO ESSB (BMA)
Name BROMMA
Region Sweden
Timezone Europe/Stockholm (UTC+1.0)
Stats Elevation 47 ft / 14 m (AMSL)
Location 59.354389° 17.941604°
Runways 1
Magnetic Variation 6.050° E

METAR

ESSB 160120Z AUTO 28008KT 9999 OVC003/// 01/01 Q0992

Decode

TAF

Not found

Departure Runways

ID Width Length Bearing (true) Bearing (mag) Surface Threshold Offset Overrun Length
12 148 ft / 45 m 6,201 ft / 1,890 m 125.06° 119.01° Asphalt 381 ft / 116 m 0 ft / 0 m
30 148 ft / 45 m 6,201 ft / 1,890 m 305.09° 299.04° Asphalt 361 ft / 110 m 0 ft / 0 m

ESGG

Details ICAO ESGG (GOT)
Name Goteborg Landvetter
Region Sweden
Timezone Europe/Stockholm (UTC+1.0)
Stats Elevation 506 ft / 154 m (AMSL)
Location 57.662836° 12.279819°
Runways 1
Magnetic Variation 3.716° E

METAR

ESGG 160120Z 30002KT 2400 BCFG FEW017 SCT040 OVC057 M03/M03 Q0994 R21/71//95

Decode

TAF

TAF TAF ESGG 152330Z 1600/1624 30005KT 9999 BKN040 PROB40 1600/1609 1200 BCFG BKN003 TEMPO 1609/1612 BKN006 TEMPO 1612/1622 2000 -SN BKN006 TEMPO 1622/1624 BKN008

Decode

Destination Runways

ID Width Length Bearing (true) Bearing (mag) Surface Threshold Offset Overrun Length
03 148 ft / 45 m 10,804 ft / 3,293 m 25.94° 22.22° Asphalt 0 ft / 0 m 207 ft / 63 m
21 148 ft / 45 m 10,804 ft / 3,293 m 205.96° 202.24° Asphalt 0 ft / 0 m 207 ft / 63 m

Approach Navaids

Runway Type Ident Frequency Range Bearing (true) Bearing (mag) Slope Elevation
03 Localiser SSG 110.30 MHz 18 nm / 33 km 25.98° 22.26° - 506 ft / 154 m (AMSL)
03 Glidescope SSG 110.30 MHz 10 nm / 19 km 25.95° 22.24° 3.00° 506 ft / 154 m (AMSL)
21 Localiser NGG 108.50 MHz 18 nm / 33 km 205.92° 202.21° - 506 ft / 154 m (AMSL)
21 Glidescope NGG 108.50 MHz 10 nm / 19 km 205.95° 202.24° 3.00° 506 ft / 154 m (AMSL)

Popular Alternatives